Snow/Ice From: 17-12-2017 10:00 Until: 18-12-2017 06:00 warning for: Snow/Ice Level: Yellow info button

Although rather usual in this region, locally or potentially dangerous phenomena are expected. (such as local winds, summer thunderstorms, rising streams or high waves) Be aware and pay attention to the latest weather updates, especially if you carry out activities exposed to weather or close to a stream or shoreline. 


Meteo18 Weather Cam more information Meteo18 Weather Cam


Thunder radar more information blitzortung!


warning for Snow/Ice more information rain snow radar


Visit our other weather sites:

Template documentation
and downloads

And another site



Weather Underground History page Text

Daily Summary for November 29, 2017 Units:  Both    English   Metric
« Previous Day
Next Day »
Daily Weekly Monthly Yearly Custom
  High: Low: Average:
Temperature: 39.6 °F /  4.2 °C 31.6 °F /  -0.2 °C 35.6 °F /  2 °C
Dew Point: 37.9 °F /  3.3 °C 30.6 °F /  -0.8 °C 34.3 °F /  1.3 °C
Humidity: 97 % 91 % 95 %
Wind Speed: 7 mph /  11.3 km/h - 1.8 mph /  2.9 km/h
Wind Gust: 10 mph /  16.1 km/h - -
Wind:- - West
Pressure: 29.9 in /  1011.4 hPa 29.8 in /  1008.4 hPa -
Precipitation: 0.02 in /  0.5 mm    
Historical Graphs
 
 
Tabular Data for November 29, 2017
Time Temperature Dew Point Pressure Wind Wind Speed Wind Gust Humidity Rainfall Rate (Hourly)
00:02 39.6 °F /  4.2 °C 37.9 °F /  3.3 °C 29.8 in /  1009.0 hPa Calm   3 mph /  4.8 km/h 94 % 0 in /  0.0 mm
00:27 38.7 °F /  3.7 °C 37 °F /  2.8 °C 29.8 in /  1009.0 hPa Calm   1 mph /  1.6 km/h 94 % 0 in /  0.0 mm
00:32 38.5 °F /  3.6 °C 36.9 °F /  2.7 °C 29.8 in /  1009.0 hPa Calm   1 mph /  1.6 km/h 94 % 0 in /  0.0 mm
00:37 38.3 °F /  3.5 °C 36.7 °F /  2.6 °C 29.8 in /  1009.0 hPa Calm   1 mph /  1.6 km/h 94 % 0 in /  0.0 mm
00:42 38.1 °F /  3.4 °C 36.9 °F /  2.7 °C 29.8 in /  1009.0 hPa Calm     95 % 0 in /  0.0 mm
00:47 37.9 °F /  3.3 °C 36.7 °F /  2.6 °C 29.8 in /  1009.0 hPa Calm   1 mph /  1.6 km/h 95 % 0 in /  0.0 mm
00:52 37.8 °F /  3.2 °C 36.5 °F /  2.5 °C 29.8 in /  1009.0 hPa Calm   1 mph /  1.6 km/h 95 % 0 in /  0.0 mm
01:12 37.9 °F /  3.3 °C 36.7 °F /  2.6 °C 29.8 in /  1008.7 hPa Calm   3 mph /  4.8 km/h 95 % 0.01 in /  0.3 mm
01:17 37.9 °F /  3.3 °C 36.7 °F /  2.6 °C 29.8 in /  1009.0 hPa West 3 mph /  4.8 km/h 6 mph /  9.7 km/h 95 % 0.01 in /  0.3 mm
01:42 37.6 °F /  3.1 °C 36.3 °F /  2.4 °C 29.8 in /  1008.7 hPa Calm   3 mph /  4.8 km/h 95 % 0.01 in /  0.3 mm
01:52 37.6 °F /  3.1 °C 36.3 °F /  2.4 °C 29.8 in /  1008.7 hPa WNW 1 mph /  1.6 km/h 1 mph /  1.6 km/h 95 % 0.01 in /  0.3 mm
02:02 37.4 °F /  3.0 °C 36.1 °F /  2.3 °C 29.8 in /  1008.7 hPa Calm   1 mph /  1.6 km/h 95 % 0 in /  0.0 mm
02:12 37.4 °F /  3.0 °C 36.1 °F /  2.3 °C 29.8 in /  1008.7 hPa Calm   1 mph /  1.6 km/h 95 % 0 in /  0.0 mm
02:22 37.2 °F /  2.9 °C 36 °F /  2.2 °C 29.8 in /  1008.7 hPa Calm     95 % 0 in /  0.0 mm
02:27 37.2 °F /  2.9 °C 36 °F /  2.2 °C 29.8 in /  1008.7 hPa Calm   1 mph /  1.6 km/h 95 % 0 in /  0.0 mm
02:32 37.2 °F /  2.9 °C 36 °F /  2.2 °C 29.8 in /  1008.7 hPa Calm   1 mph /  1.6 km/h 95 % 0 in /  0.0 mm
02:37 37.2 °F /  2.9 °C 36 °F /  2.2 °C 29.8 in /  1008.7 hPa Calm   1 mph /  1.6 km/h 95 % 0 in /  0.0 mm
02:42 37.4 °F /  3.0 °C 36.1 °F /  2.3 °C 29.8 in /  1008.7 hPa Calm   1 mph /  1.6 km/h 95 % 0 in /  0.0 mm
02:52 37.2 °F /  2.9 °C 36 °F /  2.2 °C 29.8 in /  1008.7 hPa Calm   1 mph /  1.6 km/h 95 % 0 in /  0.0 mm
03:02 37.6 °F /  3.1 °C 36.5 °F /  2.5 °C 29.8 in /  1008.7 hPa NW 1 mph /  1.6 km/h 2 mph /  3.2 km/h 96 % 0 in /  0.0 mm
03:07 37.6 °F /  3.1 °C 36.3 °F /  2.4 °C 29.8 in /  1008.7 hPa Calm   2 mph /  3.2 km/h 95 % 0 in /  0.0 mm
03:12 37.4 °F /  3.0 °C 36.1 °F /  2.3 °C 29.8 in /  1008.7 hPa WNW 1 mph /  1.6 km/h 2 mph /  3.2 km/h 95 % 0 in /  0.0 mm
03:17 37.4 °F /  3.0 °C 36.1 °F /  2.3 °C 29.8 in /  1008.7 hPa WNW 1 mph /  1.6 km/h 2 mph /  3.2 km/h 95 % 0 in /  0.0 mm
03:22 37.2 °F /  2.9 °C 36 °F /  2.2 °C 29.8 in /  1008.7 hPa NW 1 mph /  1.6 km/h 2 mph /  3.2 km/h 95 % 0 in /  0.0 mm
03:27 37.2 °F /  2.9 °C 36 °F /  2.2 °C 29.8 in /  1008.7 hPa Calm   2 mph /  3.2 km/h 95 % 0 in /  0.0 mm
03:32 37.2 °F /  2.9 °C 36 °F /  2.2 °C 29.8 in /  1008.7 hPa NW 2 mph /  3.2 km/h 2 mph /  3.2 km/h 95 % 0 in /  0.0 mm
03:42 37.6 °F /  3.1 °C 36.3 °F /  2.4 °C 29.8 in /  1008.7 hPa Calm   4 mph /  6.4 km/h 95 % 0 in /  0.0 mm
03:47 37.6 °F /  3.1 °C 36.3 °F /  2.4 °C 29.8 in /  1008.7 hPa Calm   4 mph /  6.4 km/h 95 % 0 in /  0.0 mm
04:02 37.6 °F /  3.1 °C 36.3 °F /  2.4 °C 29.8 in /  1008.7 hPa NNW 2 mph /  3.2 km/h 3 mph /  4.8 km/h 95 % 0 in /  0.0 mm
04:22 37 °F /  2.8 °C 35.8 °F /  2.1 °C 29.8 in /  1008.4 hPa North 2 mph /  3.2 km/h 4 mph /  6.4 km/h 95 % 0 in /  0.0 mm
04:32 36.9 °F /  2.7 °C 35.6 °F /  2.0 °C 29.8 in /  1008.4 hPa NNW 2 mph /  3.2 km/h 3 mph /  4.8 km/h 95 % 0 in /  0.0 mm
04:37 36.7 °F /  2.6 °C 35.4 °F /  1.9 °C 29.8 in /  1008.4 hPa North 2 mph /  3.2 km/h 3 mph /  4.8 km/h 95 % 0 in /  0.0 mm
04:42 36.5 °F /  2.5 °C 35.2 °F /  1.8 °C 29.8 in /  1008.4 hPa West 3 mph /  4.8 km/h 3 mph /  4.8 km/h 95 % 0 in /  0.0 mm
04:47 36.3 °F /  2.4 °C 35.1 °F /  1.7 °C 29.8 in /  1008.4 hPa NW 1 mph /  1.6 km/h 4 mph /  6.4 km/h 95 % 0 in /  0.0 mm
04:52 36.1 °F /  2.3 °C 34.9 °F /  1.6 °C 29.8 in /  1008.4 hPa NW 1 mph /  1.6 km/h 4 mph /  6.4 km/h 95 % 0 in /  0.0 mm
05:02 35.4 °F /  1.9 °C 34.2 °F /  1.2 °C 29.8 in /  1008.4 hPa NNW 1 mph /  1.6 km/h 4 mph /  6.4 km/h 95 % 0 in /  0.0 mm
05:07 35.4 °F /  1.9 °C 34.2 °F /  1.2 °C 29.8 in /  1008.4 hPa NW 2 mph /  3.2 km/h 3 mph /  4.8 km/h 95 % 0 in /  0.0 mm
05:12 35.2 °F /  1.8 °C 34 °F /  1.1 °C 29.8 in /  1008.4 hPa NW 2 mph /  3.2 km/h 3 mph /  4.8 km/h 95 % 0 in /  0.0 mm
05:17 35.2 °F /  1.8 °C 34 °F /  1.1 °C 29.8 in /  1008.4 hPa WNW 2 mph /  3.2 km/h 3 mph /  4.8 km/h 95 % 0 in /  0.0 mm
05:22 35.2 °F /  1.8 °C 34 °F /  1.1 °C 29.8 in /  1008.4 hPa Calm   3 mph /  4.8 km/h 95 % 0 in /  0.0 mm
05:32 34.3 °F /  1.3 °C 33.1 °F /  0.6 °C 29.8 in /  1008.4 hPa Calm   3 mph /  4.8 km/h 95 % 0 in /  0.0 mm
05:37 34 °F /  1.1 °C 32.7 °F /  0.4 °C 29.8 in /  1008.7 hPa NW 1 mph /  1.6 km/h 2 mph /  3.2 km/h 95 % 0 in /  0.0 mm
05:42 34 °F /  1.1 °C 32.9 °F /  0.5 °C 29.8 in /  1008.7 hPa NNW 1 mph /  1.6 km/h 2 mph /  3.2 km/h 96 % 0 in /  0.0 mm
05:52 34.2 °F /  1.2 °C 33.1 °F /  0.6 °C 29.8 in /  1008.7 hPa North 1 mph /  1.6 km/h 3 mph /  4.8 km/h 96 % 0 in /  0.0 mm
05:57 34.2 °F /  1.2 °C 33.1 °F /  0.6 °C 29.8 in /  1008.4 hPa NW 1 mph /  1.6 km/h 3 mph /  4.8 km/h 96 % 0 in /  0.0 mm
06:02 33.6 °F /  0.9 °C 32.4 °F /  0.2 °C 29.8 in /  1008.7 hPa WNW 1 mph /  1.6 km/h 3 mph /  4.8 km/h 95 % 0 in /  0.0 mm
06:12 33.1 °F /  0.6 °C 31.8 °F /  -0.1 °C 29.8 in /  1008.7 hPa Calm   3 mph /  4.8 km/h 95 % 0 in /  0.0 mm
06:32 33.1 °F /  0.6 °C 32 °F /  0.0 °C 29.8 in /  1008.7 hPa North 1 mph /  1.6 km/h 3 mph /  4.8 km/h 96 % 0 in /  0.0 mm
06:42 33.1 °F /  0.6 °C 32 °F /  0.0 °C 29.8 in /  1008.7 hPa Calm   2 mph /  3.2 km/h 96 % 0 in /  0.0 mm
06:57 33.3 °F /  0.7 °C 32.2 °F /  0.1 °C 29.8 in /  1008.4 hPa Calm   1 mph /  1.6 km/h 96 % 0 in /  0.0 mm
07:02 33.3 °F /  0.7 °C 32.2 °F /  0.1 °C 29.8 in /  1008.7 hPa Calm   1 mph /  1.6 km/h 96 % 0 in /  0.0 mm
07:12 33.1 °F /  0.6 °C 32 °F /  0.0 °C 29.8 in /  1008.7 hPa Calm   1 mph /  1.6 km/h 96 % 0 in /  0.0 mm
07:32 33.1 °F /  0.6 °C 32 °F /  0.0 °C 29.8 in /  1008.7 hPa Calm     96 % 0 in /  0.0 mm
07:37 33.1 °F /  0.6 °C 32 °F /  0.0 °C 29.8 in /  1008.7 hPa Calm     96 % 0 in /  0.0 mm
07:42 33.1 °F /  0.6 °C 32.4 °F /  0.2 °C 29.8 in /  1009.0 hPa Calm     97 % 0 in /  0.0 mm
07:47 33.1 °F /  0.6 °C 32 °F /  0.0 °C 29.8 in /  1009.0 hPa Calm   1 mph /  1.6 km/h 96 % 0 in /  0.0 mm
07:52 33.1 °F /  0.6 °C 32 °F /  0.0 °C 29.8 in /  1009.0 hPa Calm   1 mph /  1.6 km/h 96 % 0 in /  0.0 mm
08:02 33.1 °F /  0.6 °C 32 °F /  0.0 °C 29.8 in /  1009.0 hPa Calm   1 mph /  1.6 km/h 96 % 0 in /  0.0 mm
08:07 32.9 °F /  0.5 °C 31.8 °F /  -0.1 °C 29.8 in /  1009.0 hPa Calm   1 mph /  1.6 km/h 96 % 0 in /  0.0 mm
08:12 32.9 °F /  0.5 °C 31.8 °F /  -0.1 °C 29.8 in /  1009.0 hPa Calm   1 mph /  1.6 km/h 96 % 0 in /  0.0 mm
08:22 32.9 °F /  0.5 °C 31.8 °F /  -0.1 °C 29.8 in /  1009.0 hPa Calm   1 mph /  1.6 km/h 96 % 0 in /  0.0 mm
08:32 33.1 °F /  0.6 °C 32.4 °F /  0.2 °C 29.8 in /  1009.4 hPa Calm     97 % 0 in /  0.0 mm
08:37 33.1 °F /  0.6 °C 32.4 °F /  0.2 °C 29.8 in /  1009.4 hPa SE 1 mph /  1.6 km/h   97 % 0 in /  0.0 mm
08:42 33.1 °F /  0.6 °C 32.4 °F /  0.2 °C 29.8 in /  1009.4 hPa Calm     97 % 0 in /  0.0 mm
08:52 33.1 °F /  0.6 °C 32.4 °F /  0.2 °C 29.8 in /  1009.4 hPa Calm   1 mph /  1.6 km/h 97 % 0 in /  0.0 mm
09:02 33.1 °F /  0.6 °C 32.4 °F /  0.2 °C 29.8 in /  1009.4 hPa Calm   1 mph /  1.6 km/h 97 % 0 in /  0.0 mm
09:07 33.3 °F /  0.7 °C 32.5 °F /  0.3 °C 29.8 in /  1009.7 hPa SSW 1 mph /  1.6 km/h   97 % 0 in /  0.0 mm
09:12 33.1 °F /  0.6 °C 32.4 °F /  0.2 °C 29.8 in /  1009.7 hPa Calm     97 % 0 in /  0.0 mm
09:17 33.1 °F /  0.6 °C 32.4 °F /  0.2 °C 29.8 in /  1009.7 hPa Calm   1 mph /  1.6 km/h 97 % 0 in /  0.0 mm
09:52 32.5 °F /  0.3 °C 31.5 °F /  -0.3 °C 29.8 in /  1009.7 hPa Calm   3 mph /  4.8 km/h 96 % 0 in /  0.0 mm
10:02 32.5 °F /  0.3 °C 31.8 °F /  -0.1 °C 29.8 in /  1009.7 hPa SW 1 mph /  1.6 km/h 3 mph /  4.8 km/h 97 % 0 in /  0.0 mm
10:12 32.4 °F /  0.2 °C 31.3 °F /  -0.4 °C 29.8 in /  1010.0 hPa Calm   2 mph /  3.2 km/h 96 % 0 in /  0.0 mm
10:17 32.4 °F /  0.2 °C 31.3 °F /  -0.4 °C 29.8 in /  1010.0 hPa WSW 1 mph /  1.6 km/h 4 mph /  6.4 km/h 96 % 0 in /  0.0 mm
10:32 32.2 °F /  0.1 °C 31.1 °F /  -0.5 °C 29.8 in /  1010.0 hPa SSW 1 mph /  1.6 km/h 2 mph /  3.2 km/h 96 % 0 in /  0.0 mm
10:37 31.8 °F /  -0.1 °C 30.7 °F /  -0.7 °C 29.8 in /  1010.0 hPa SSW 2 mph /  3.2 km/h 3 mph /  4.8 km/h 96 % 0 in /  0.0 mm
10:57 31.6 °F /  -0.2 °C 30.6 °F /  -0.8 °C 29.8 in /  1010.0 hPa SW 4 mph /  6.4 km/h 5 mph /  8.0 km/h 96 % 0 in /  0.0 mm
11:02 31.6 °F /  -0.2 °C 30.9 °F /  -0.6 °C 29.8 in /  1010.0 hPa WSW 1 mph /  1.6 km/h 5 mph /  8.0 km/h 97 % 0 in /  0.0 mm
11:12 31.8 °F /  -0.1 °C 31.1 °F /  -0.5 °C 29.8 in /  1010.0 hPa WSW 1 mph /  1.6 km/h 5 mph /  8.0 km/h 97 % 0 in /  0.0 mm
11:22 32.4 °F /  0.2 °C 31.6 °F /  -0.2 °C 29.8 in /  1010.0 hPa Calm   6 mph /  9.7 km/h 97 % 0 in /  0.0 mm
11:27 32.5 °F /  0.3 °C 31.8 °F /  -0.1 °C 29.8 in /  1010.0 hPa WSW 1 mph /  1.6 km/h 4 mph /  6.4 km/h 97 % 0 in /  0.0 mm
11:42 33.3 °F /  0.7 °C 32.5 °F /  0.3 °C 29.8 in /  1010.0 hPa WSW 1 mph /  1.6 km/h 4 mph /  6.4 km/h 97 % 0 in /  0.0 mm
11:52 33.4 °F /  0.8 °C 32.7 °F /  0.4 °C 29.8 in /  1010.0 hPa WSW 4 mph /  6.4 km/h 4 mph /  6.4 km/h 97 % 0 in /  0.0 mm
11:57 33.3 °F /  0.7 °C 32.5 °F /  0.3 °C 29.8 in /  1010.0 hPa SSW 3 mph /  4.8 km/h 5 mph /  8.0 km/h 97 % 0 in /  0.0 mm
12:02 33.4 °F /  0.8 °C 32.7 °F /  0.4 °C 29.8 in /  1010.0 hPa SW 1 mph /  1.6 km/h 5 mph /  8.0 km/h 97 % 0 in /  0.0 mm
12:27 34.2 °F /  1.2 °C 33.4 °F /  0.8 °C 29.8 in /  1009.7 hPa SW 4 mph /  6.4 km/h 4 mph /  6.4 km/h 97 % 0 in /  0.0 mm
12:32 34.2 °F /  1.2 °C 33.4 °F /  0.8 °C 29.8 in /  1009.7 hPa SW 4 mph /  6.4 km/h 4 mph /  6.4 km/h 97 % 0 in /  0.0 mm
12:37 34.2 °F /  1.2 °C 33.4 °F /  0.8 °C 29.8 in /  1009.7 hPa SSW 1 mph /  1.6 km/h 6 mph /  9.7 km/h 97 % 0 in /  0.0 mm
12:42 34.3 °F /  1.3 °C 33.6 °F /  0.9 °C 29.8 in /  1009.7 hPa WSW 3 mph /  4.8 km/h 6 mph /  9.7 km/h 97 % 0 in /  0.0 mm
12:57 34.9 °F /  1.6 °C 34.2 °F /  1.2 °C 29.8 in /  1009.7 hPa SW 6 mph /  9.7 km/h 6 mph /  9.7 km/h 97 % 0 in /  0.0 mm
13:02 34.9 °F /  1.6 °C 34.2 °F /  1.2 °C 29.8 in /  1009.7 hPa SW 2 mph /  3.2 km/h 6 mph /  9.7 km/h 97 % 0 in /  0.0 mm
13:12 35.2 °F /  1.8 °C 34.5 °F /  1.4 °C 29.8 in /  1009.7 hPa WSW 1 mph /  1.6 km/h 6 mph /  9.7 km/h 97 % 0 in /  0.0 mm
13:17 35.1 °F /  1.7 °C 34.3 °F /  1.3 °C 29.8 in /  1009.4 hPa West 3 mph /  4.8 km/h 6 mph /  9.7 km/h 97 % 0 in /  0.0 mm
13:22 35.2 °F /  1.8 °C 34.5 °F /  1.4 °C 29.8 in /  1009.4 hPa West 3 mph /  4.8 km/h 6 mph /  9.7 km/h 97 % 0 in /  0.0 mm
13:32 35.6 °F /  2.0 °C 34.9 °F /  1.6 °C 29.8 in /  1009.4 hPa WSW 1 mph /  1.6 km/h 7 mph /  11.3 km/h 97 % 0 in /  0.0 mm
13:47 36 °F /  2.2 °C 35.2 °F /  1.8 °C 29.8 in /  1009.4 hPa WSW 3 mph /  4.8 km/h 7 mph /  11.3 km/h 97 % 0 in /  0.0 mm
13:52 36 °F /  2.2 °C 35.2 °F /  1.8 °C 29.8 in /  1009.4 hPa WSW 2 mph /  3.2 km/h 7 mph /  11.3 km/h 97 % 0 in /  0.0 mm
14:12 36.5 °F /  2.5 °C 35.8 °F /  2.1 °C 29.8 in /  1009.4 hPa SW 3 mph /  4.8 km/h 7 mph /  11.3 km/h 97 % 0 in /  0.0 mm
14:17 36.7 °F /  2.6 °C 36 °F /  2.2 °C 29.8 in /  1009.4 hPa West 3 mph /  4.8 km/h 8 mph /  12.9 km/h 97 % 0 in /  0.0 mm
14:32 36.9 °F /  2.7 °C 35.6 °F /  2.0 °C 29.8 in /  1009.4 hPa West 7 mph /  11.3 km/h 8 mph /  12.9 km/h 95 % 0 in /  0.0 mm
14:47 37.2 °F /  2.9 °C 35.4 °F /  1.9 °C 29.8 in /  1009.4 hPa WSW 6 mph /  9.7 km/h 8 mph /  12.9 km/h 93 % 0 in /  0.0 mm
14:52 37.8 °F /  3.2 °C 36 °F /  2.2 °C 29.8 in /  1009.4 hPa West 2 mph /  3.2 km/h 8 mph /  12.9 km/h 93 % 0 in /  0.0 mm
14:57 37.9 °F /  3.3 °C 35.8 °F /  2.1 °C 29.8 in /  1009.4 hPa SW 4 mph /  6.4 km/h 7 mph /  11.3 km/h 92 % 0 in /  0.0 mm
15:02 37.9 °F /  3.3 °C 35.8 °F /  2.1 °C 29.8 in /  1009.4 hPa West 5 mph /  8.0 km/h 7 mph /  11.3 km/h 92 % 0 in /  0.0 mm
15:12 37.9 °F /  3.3 °C 35.6 °F /  2.0 °C 29.8 in /  1009.4 hPa West 1 mph /  1.6 km/h 7 mph /  11.3 km/h 91 % 0 in /  0.0 mm
15:17 37.9 °F /  3.3 °C 35.8 °F /  2.1 °C 29.8 in /  1009.4 hPa WSW 2 mph /  3.2 km/h 7 mph /  11.3 km/h 92 % 0 in /  0.0 mm
15:22 37.9 °F /  3.3 °C 35.8 °F /  2.1 °C 29.8 in /  1009.4 hPa WNW 3 mph /  4.8 km/h 7 mph /  11.3 km/h 92 % 0 in /  0.0 mm
15:32 37.4 °F /  3.0 °C 35.2 °F /  1.8 °C 29.8 in /  1009.4 hPa West 5 mph /  8.0 km/h 6 mph /  9.7 km/h 92 % 0 in /  0.0 mm
15:37 37.2 °F /  2.9 °C 35.1 °F /  1.7 °C 29.8 in /  1009.4 hPa SW 3 mph /  4.8 km/h 7 mph /  11.3 km/h 92 % 0 in /  0.0 mm
15:42 37.2 °F /  2.9 °C 35.1 °F /  1.7 °C 29.8 in /  1009.4 hPa West 3 mph /  4.8 km/h 7 mph /  11.3 km/h 92 % 0 in /  0.0 mm
15:52 37.2 °F /  2.9 °C 35.4 °F /  1.9 °C 29.8 in /  1009.4 hPa WSW 1 mph /  1.6 km/h 7 mph /  11.3 km/h 93 % 0 in /  0.0 mm
16:02 37 °F /  2.8 °C 35.2 °F /  1.8 °C 29.8 in /  1009.4 hPa West 2 mph /  3.2 km/h 6 mph /  9.7 km/h 93 % 0 in /  0.0 mm
16:07 37 °F /  2.8 °C 35.2 °F /  1.8 °C 29.8 in /  1009.4 hPa West 4 mph /  6.4 km/h 6 mph /  9.7 km/h 93 % 0 in /  0.0 mm
16:12 37 °F /  2.8 °C 35.2 °F /  1.8 °C 29.8 in /  1009.4 hPa WSW 2 mph /  3.2 km/h 6 mph /  9.7 km/h 93 % 0 in /  0.0 mm
16:17 36.9 °F /  2.7 °C 35.1 °F /  1.7 °C 29.8 in /  1009.4 hPa SW 2 mph /  3.2 km/h 6 mph /  9.7 km/h 93 % 0 in /  0.0 mm
16:22 36.9 °F /  2.7 °C 35.1 °F /  1.7 °C 29.8 in /  1009.4 hPa West 3 mph /  4.8 km/h 6 mph /  9.7 km/h 93 % 0 in /  0.0 mm
16:27 36.7 °F /  2.6 °C 34.9 °F /  1.6 °C 29.8 in /  1009.4 hPa West 3 mph /  4.8 km/h 7 mph /  11.3 km/h 93 % 0 in /  0.0 mm
16:32 36.7 °F /  2.6 °C 34.9 °F /  1.6 °C 29.8 in /  1009.4 hPa WSW 3 mph /  4.8 km/h 7 mph /  11.3 km/h 93 % 0 in /  0.0 mm
16:42 36.7 °F /  2.6 °C 34.9 °F /  1.6 °C 29.8 in /  1009.4 hPa WSW 6 mph /  9.7 km/h 8 mph /  12.9 km/h 93 % 0 in /  0.0 mm
16:52 36.7 °F /  2.6 °C 34.9 °F /  1.6 °C 29.8 in /  1009.7 hPa West 3 mph /  4.8 km/h 9 mph /  14.5 km/h 93 % 0 in /  0.0 mm
17:12 36.3 °F /  2.4 °C 34.5 °F /  1.4 °C 29.8 in /  1009.7 hPa West 3 mph /  4.8 km/h 10 mph /  16.1 km/h 93 % 0 in /  0.0 mm
17:17 36.1 °F /  2.3 °C 34.3 °F /  1.3 °C 29.8 in /  1009.7 hPa West 3 mph /  4.8 km/h 8 mph /  12.9 km/h 93 % 0 in /  0.0 mm
17:27 36 °F /  2.2 °C 34.2 °F /  1.2 °C 29.8 in /  1009.7 hPa West 3 mph /  4.8 km/h 9 mph /  14.5 km/h 93 % 0 in /  0.0 mm
17:32 36 °F /  2.2 °C 34.2 °F /  1.2 °C 29.8 in /  1009.7 hPa West 5 mph /  8.0 km/h 9 mph /  14.5 km/h 93 % 0 in /  0.0 mm
17:37 35.8 °F /  2.1 °C 34 °F /  1.1 °C 29.8 in /  1010.0 hPa WSW 6 mph /  9.7 km/h 8 mph /  12.9 km/h 93 % 0 in /  0.0 mm
18:02 35.6 °F /  2.0 °C 34 °F /  1.1 °C 29.8 in /  1010.0 hPa West 4 mph /  6.4 km/h 7 mph /  11.3 km/h 94 % 0 in /  0.0 mm
18:12 35.8 °F /  2.1 °C 34.2 °F /  1.2 °C 29.8 in /  1010.0 hPa WNW 6 mph /  9.7 km/h 6 mph /  9.7 km/h 94 % 0 in /  0.0 mm
18:17 35.8 °F /  2.1 °C 34.2 °F /  1.2 °C 29.8 in /  1010.0 hPa West 5 mph /  8.0 km/h 5 mph /  8.0 km/h 94 % 0 in /  0.0 mm
18:22 35.8 °F /  2.1 °C 34.2 °F /  1.2 °C 29.8 in /  1010.0 hPa WNW 5 mph /  8.0 km/h 8 mph /  12.9 km/h 94 % 0 in /  0.0 mm
18:32 35.6 °F /  2.0 °C 34 °F /  1.1 °C 29.8 in /  1010.0 hPa West 4 mph /  6.4 km/h 9 mph /  14.5 km/h 94 % 0 in /  0.0 mm
18:37 35.6 °F /  2.0 °C 34 °F /  1.1 °C 29.8 in /  1010.4 hPa WNW 3 mph /  4.8 km/h 9 mph /  14.5 km/h 94 % 0 in /  0.0 mm
18:42 35.6 °F /  2.0 °C 34 °F /  1.1 °C 29.8 in /  1010.4 hPa WNW 3 mph /  4.8 km/h 10 mph /  16.1 km/h 94 % 0 in /  0.0 mm
18:52 35.6 °F /  2.0 °C 34 °F /  1.1 °C 29.8 in /  1010.4 hPa West 4 mph /  6.4 km/h 8 mph /  12.9 km/h 94 % 0 in /  0.0 mm
18:57 35.6 °F /  2.0 °C 34 °F /  1.1 °C 29.8 in /  1010.4 hPa WNW 5 mph /  8.0 km/h 8 mph /  12.9 km/h 94 % 0 in /  0.0 mm
19:12 35.8 °F /  2.1 °C 34.2 °F /  1.2 °C 29.8 in /  1010.4 hPa West 2 mph /  3.2 km/h 9 mph /  14.5 km/h 94 % 0 in /  0.0 mm
19:17 35.6 °F /  2.0 °C 34 °F /  1.1 °C 29.8 in /  1010.4 hPa WNW 2 mph /  3.2 km/h 7 mph /  11.3 km/h 94 % 0 in /  0.0 mm
19:32 35.6 °F /  2.0 °C 34 °F /  1.1 °C 29.8 in /  1010.7 hPa WSW 4 mph /  6.4 km/h 6 mph /  9.7 km/h 94 % 0 in /  0.0 mm
19:42 35.8 °F /  2.1 °C 34.2 °F /  1.2 °C 29.8 in /  1010.7 hPa WSW 4 mph /  6.4 km/h 6 mph /  9.7 km/h 94 % 0 in /  0.0 mm
19:47 35.8 °F /  2.1 °C 34.2 °F /  1.2 °C 29.8 in /  1010.7 hPa West 7 mph /  11.3 km/h 9 mph /  14.5 km/h 94 % 0 in /  0.0 mm
20:02 35.8 °F /  2.1 °C 34.2 °F /  1.2 °C 29.8 in /  1010.7 hPa WSW 2 mph /  3.2 km/h 7 mph /  11.3 km/h 94 % 0 in /  0.0 mm
20:12 35.8 °F /  2.1 °C 34.2 °F /  1.2 °C 29.8 in /  1010.7 hPa WSW 3 mph /  4.8 km/h 7 mph /  11.3 km/h 94 % 0 in /  0.0 mm
20:17 35.8 °F /  2.1 °C 34.2 °F /  1.2 °C 29.8 in /  1010.7 hPa WSW 2 mph /  3.2 km/h 4 mph /  6.4 km/h 94 % 0 in /  0.0 mm
20:22 35.8 °F /  2.1 °C 34.2 °F /  1.2 °C 29.8 in /  1010.7 hPa West 3 mph /  4.8 km/h 4 mph /  6.4 km/h 94 % 0 in /  0.0 mm
20:27 35.6 °F /  2.0 °C 34 °F /  1.1 °C 29.8 in /  1010.7 hPa WNW 2 mph /  3.2 km/h 4 mph /  6.4 km/h 94 % 0 in /  0.0 mm
20:32 35.6 °F /  2.0 °C 34 °F /  1.1 °C 29.9 in /  1011.1 hPa WNW 1 mph /  1.6 km/h 4 mph /  6.4 km/h 94 % 0 in /  0.0 mm
20:42 35.8 °F /  2.1 °C 34.2 °F /  1.2 °C 29.9 in /  1011.1 hPa WNW 3 mph /  4.8 km/h 4 mph /  6.4 km/h 94 % 0 in /  0.0 mm
20:47 35.8 °F /  2.1 °C 34.2 °F /  1.2 °C 29.9 in /  1011.1 hPa West 1 mph /  1.6 km/h 9 mph /  14.5 km/h 94 % 0 in /  0.0 mm
20:52 35.8 °F /  2.1 °C 34.2 °F /  1.2 °C 29.9 in /  1011.1 hPa WNW 3 mph /  4.8 km/h 9 mph /  14.5 km/h 94 % 0 in /  0.0 mm
20:57 35.8 °F /  2.1 °C 34.2 °F /  1.2 °C 29.9 in /  1011.1 hPa WNW 6 mph /  9.7 km/h 9 mph /  14.5 km/h 94 % 0 in /  0.0 mm
21:02 35.8 °F /  2.1 °C 34.2 °F /  1.2 °C 29.9 in /  1011.1 hPa West 5 mph /  8.0 km/h 9 mph /  14.5 km/h 94 % 0 in /  0.0 mm
21:12 36 °F /  2.2 °C 34.3 °F /  1.3 °C 29.9 in /  1011.1 hPa West 2 mph /  3.2 km/h 6 mph /  9.7 km/h 94 % 0 in /  0.0 mm
21:17 36 °F /  2.2 °C 34.3 °F /  1.3 °C 29.9 in /  1011.1 hPa West 4 mph /  6.4 km/h 5 mph /  8.0 km/h 94 % 0.01 in /  0.3 mm
21:27 36.1 °F /  2.3 °C 34.5 °F /  1.4 °C 29.9 in /  1011.1 hPa WNW 4 mph /  6.4 km/h 6 mph /  9.7 km/h 94 % 0.01 in /  0.3 mm
21:32 36.3 °F /  2.4 °C 34.7 °F /  1.5 °C 29.9 in /  1011.1 hPa West 1 mph /  1.6 km/h 6 mph /  9.7 km/h 94 % 0.01 in /  0.3 mm
21:42 36.5 °F /  2.5 °C 34.9 °F /  1.6 °C 29.9 in /  1011.4 hPa Calm   6 mph /  9.7 km/h 94 % 0.01 in /  0.3 mm
21:47 36.5 °F /  2.5 °C 34.9 °F /  1.6 °C 29.9 in /  1011.4 hPa WNW 2 mph /  3.2 km/h 5 mph /  8.0 km/h 94 % 0.01 in /  0.3 mm
21:57 36.7 °F /  2.6 °C 35.1 °F /  1.7 °C 29.9 in /  1011.4 hPa West 3 mph /  4.8 km/h 8 mph /  12.9 km/h 94 % 0.01 in /  0.3 mm
22:02 36.7 °F /  2.6 °C 35.1 °F /  1.7 °C 29.9 in /  1011.1 hPa NW 3 mph /  4.8 km/h 8 mph /  12.9 km/h 94 % 0.01 in /  0.3 mm
22:07 36.7 °F /  2.6 °C 34.9 °F /  1.6 °C 29.9 in /  1011.1 hPa WNW 5 mph /  8.0 km/h 8 mph /  12.9 km/h 93 % 0.01 in /  0.3 mm
22:12 36.9 °F /  2.7 °C 35.1 °F /  1.7 °C 29.9 in /  1011.4 hPa West 2 mph /  3.2 km/h 8 mph /  12.9 km/h 93 % 0.01 in /  0.3 mm
22:17 36.9 °F /  2.7 °C 35.1 °F /  1.7 °C 29.9 in /  1011.4 hPa West 1 mph /  1.6 km/h 6 mph /  9.7 km/h 93 % 0 in /  0.0 mm
22:22 36.9 °F /  2.7 °C 35.1 °F /  1.7 °C 29.9 in /  1011.1 hPa West 1 mph /  1.6 km/h 6 mph /  9.7 km/h 93 % 0 in /  0.0 mm
22:32 36.7 °F /  2.6 °C 34.9 °F /  1.6 °C 29.9 in /  1011.4 hPa Calm   5 mph /  8.0 km/h 93 % 0 in /  0.0 mm
22:37 36.7 °F /  2.6 °C 34.9 °F /  1.6 °C 29.9 in /  1011.4 hPa WNW 3 mph /  4.8 km/h 3 mph /  4.8 km/h 93 % 0 in /  0.0 mm
22:42 36.7 °F /  2.6 °C 34.9 °F /  1.6 °C 29.9 in /  1011.4 hPa WNW 1 mph /  1.6 km/h 3 mph /  4.8 km/h 93 % 0 in /  0.0 mm
22:47 36.7 °F /  2.6 °C 34.9 °F /  1.6 °C 29.9 in /  1011.4 hPa Calm   3 mph /  4.8 km/h 93 % 0 in /  0.0 mm
22:52 36.7 °F /  2.6 °C 34.9 °F /  1.6 °C 29.9 in /  1011.4 hPa Calm   3 mph /  4.8 km/h 93 % 0 in /  0.0 mm
23:02 36.7 °F /  2.6 °C 34.9 °F /  1.6 °C 29.9 in /  1011.4 hPa Calm   2 mph /  3.2 km/h 93 % 0 in /  0.0 mm
23:12 36.7 °F /  2.6 °C 34.9 °F /  1.6 °C 29.9 in /  1011.4 hPa West 1 mph /  1.6 km/h 1 mph /  1.6 km/h 93 % 0 in /  0.0 mm
23:17 36.7 °F /  2.6 °C 34.9 °F /  1.6 °C 29.9 in /  1011.4 hPa West 1 mph /  1.6 km/h 1 mph /  1.6 km/h 93 % 0 in /  0.0 mm
23:22 36.7 °F /  2.6 °C 34.9 °F /  1.6 °C 29.9 in /  1011.4 hPa Calm   1 mph /  1.6 km/h 93 % 0 in /  0.0 mm
23:32 36.9 °F /  2.7 °C 35.1 °F /  1.7 °C 29.9 in /  1011.1 hPa Calm   2 mph /  3.2 km/h 93 % 0 in /  0.0 mm
23:42 36.9 °F /  2.7 °C 35.1 °F /  1.7 °C 29.9 in /  1011.4 hPa West 1 mph /  1.6 km/h 3 mph /  4.8 km/h 93 % 0 in /  0.0 mm
23:47 37 °F /  2.8 °C 35.2 °F /  1.8 °C 29.9 in /  1011.4 hPa WNW 2 mph /  3.2 km/h 3 mph /  4.8 km/h 93 % 0 in /  0.0 mm
23:57 37 °F /  2.8 °C 35.2 °F /  1.8 °C 29.9 in /  1011.4 hPa West 2 mph /  3.2 km/h 3 mph /  4.8 km/h 93 % 0 in /  0.0 mm
Meteo18
Compliments of Weather Underground - 4 mb

Script developed by  Jim McMurry - jmcmurry@mwt.net Adapted for the template by  Wim van der Kuil - Leuven-Template.eu

You find our weather info also at:

European Weather Network

Weather Underground

Equipment we use:

Weather-station
Davis Vue

Weather-program
Meteohub

Weather-server
Raspberry PI 2 B+

Provider
1 and 1

Davis Vue

Meteohub

Raspberry PI 2 B+

1 and 1